createdAt,value
2019-01-28T00:00:39.212Z,53.60
2019-01-28T00:02:40.859Z,53.97
2019-01-28T00:04:42.454Z,53.74
2019-01-28T00:06:44.049Z,54.17
2019-01-28T00:08:45.654Z,53.90
2019-01-28T00:10:47.292Z,54.44
2019-01-28T00:12:48.944Z,54.60
2019-01-28T00:14:50.545Z,54.73
2019-01-28T00:16:52.141Z,54.88
2019-01-28T00:18:53.749Z,55.02
2019-01-28T00:20:55.345Z,55.45
2019-01-28T00:22:56.954Z,55.51
2019-01-28T00:24:58.593Z,55.30
2019-01-28T00:27:00.192Z,55.34
2019-01-28T00:29:01.785Z,55.24
2019-01-28T00:31:03.386Z,55.19
2019-01-28T00:33:04.993Z,55.29
2019-01-28T00:35:06.604Z,55.49
2019-01-28T00:37:08.228Z,55.31
2019-01-28T00:39:09.840Z,55.46
2019-01-28T00:41:11.438Z,55.61
2019-01-28T00:43:13.091Z,55.64
2019-01-28T00:45:14.685Z,55.67
2019-01-28T00:47:16.291Z,55.88
2019-01-28T00:49:17.935Z,55.67
2019-01-28T00:51:19.548Z,55.87
2019-01-28T00:53:21.152Z,55.78
2019-01-28T00:55:22.800Z,55.60
2019-01-28T00:57:24.401Z,55.61
2019-01-28T00:59:26.019Z,55.59
2019-01-28T01:01:27.618Z,55.57
2019-01-28T01:03:29.225Z,55.53
2019-01-28T01:05:30.827Z,55.38
2019-01-28T01:07:32.476Z,55.39
2019-01-28T01:09:34.073Z,55.27
2019-01-28T01:11:35.686Z,55.27
2019-01-28T01:13:37.300Z,55.25
2019-01-28T01:15:38.900Z,55.34
2019-01-28T01:17:40.493Z,55.35
2019-01-28T01:19:42.160Z,55.09
2019-01-28T01:21:43.758Z,55.41
2019-01-28T01:23:45.364Z,55.26
2019-01-28T01:25:46.957Z,55.18
2019-01-28T01:27:48.583Z,55.18
2019-01-28T01:29:50.224Z,55.17
2019-01-28T01:31:51.827Z,55.03
2019-01-28T01:33:53.421Z,55.45
2019-01-28T01:35:55.027Z,55.66
2019-01-28T01:37:56.675Z,55.50
2019-01-28T01:39:58.270Z,55.75
2019-01-28T01:41:59.862Z,55.61
2019-01-28T01:44:01.474Z,55.64
2019-01-28T01:46:03.059Z,55.41
2019-01-28T01:48:04.705Z,55.63
2019-01-28T01:50:06.337Z,55.80
2019-01-28T01:52:07.929Z,55.64
2019-01-28T01:54:09.540Z,55.81
2019-01-28T01:56:11.138Z,56.10
2019-01-28T01:58:13.047Z,56.02
2019-01-28T02:00:14.377Z,55.80
2019-01-28T02:02:15.998Z,55.63
2019-01-28T02:04:17.607Z,55.61
2019-01-28T02:06:19.206Z,55.68
2019-01-28T02:08:20.801Z,55.83
2019-01-28T02:10:22.416Z,55.89
2019-01-28T02:12:24.045Z,55.84
2019-01-28T02:14:25.697Z,55.93
2019-01-28T02:16:27.290Z,55.87
2019-01-28T02:18:28.889Z,56.13
2019-01-28T02:20:30.476Z,56.24
2019-01-28T02:22:32.074Z,56.15
2019-01-28T02:24:33.673Z,56.28
2019-01-28T02:26:35.259Z,56.57
2019-01-28T02:28:36.853Z,56.59
2019-01-28T02:30:38.489Z,56.56
2019-01-28T02:32:40.089Z,56.57
2019-01-28T02:34:41.702Z,56.40
2019-01-28T02:36:43.312Z,56.69
2019-01-28T02:38:44.915Z,56.40
2019-01-28T02:40:46.525Z,56.68
2019-01-28T02:42:48.181Z,56.66
2019-01-28T02:44:49.794Z,56.65
2019-01-28T02:46:51.389Z,56.76
2019-01-28T02:48:53.054Z,56.75
2019-01-28T02:50:54.745Z,56.90
2019-01-28T02:52:57.033Z,56.81
2019-01-28T02:54:58.718Z,56.80
2019-01-28T02:57:00.401Z,56.58
2019-01-28T02:59:02.118Z,55.70
2019-01-28T03:01:04.296Z,55.81
2019-01-28T03:03:06.875Z,55.74
2019-01-28T03:05:08.627Z,55.60
2019-01-28T03:07:10.345Z,55.74
2019-01-28T03:09:12.032Z,55.77
2019-01-28T03:11:14.614Z,55.52
2019-01-28T03:13:16.303Z,55.48
2019-01-28T03:15:17.994Z,55.34
2019-01-28T03:17:19.656Z,55.71
2019-01-28T03:19:21.281Z,55.53
2019-01-28T03:21:22.913Z,55.81
2019-01-28T03:23:24.519Z,55.79
2019-01-28T03:25:26.192Z,55.94
2019-01-28T03:27:27.846Z,56.19
2019-01-28T03:29:29.589Z,56.03
2019-01-28T03:31:31.219Z,56.24
2019-01-28T03:33:32.826Z,55.99
2019-01-28T03:35:34.550Z,56.02
2019-01-28T03:37:36.257Z,56.11
2019-01-28T03:39:37.889Z,55.98
2019-01-28T03:41:39.548Z,55.95
2019-01-28T03:43:41.166Z,55.71
2019-01-28T03:45:42.776Z,55.58
2019-01-28T03:47:44.406Z,55.16
2019-01-28T03:49:46.172Z,54.90
2019-01-28T03:51:47.816Z,55.41
2019-01-28T03:53:49.607Z,55.95
2019-01-28T03:55:51.225Z,55.93
2019-01-28T03:57:52.848Z,55.84
2019-01-28T03:59:54.487Z,55.64
2019-01-28T04:01:56.121Z,55.04
2019-01-28T04:03:57.721Z,54.59
2019-01-28T04:05:59.311Z,54.46
2019-01-28T04:08:01.166Z,54.45
2019-01-28T04:10:02.826Z,54.40
2019-01-28T04:12:04.421Z,54.35
2019-01-28T04:14:06.067Z,54.28
2019-01-28T04:16:07.671Z,54.20
2019-01-28T04:18:09.285Z,54.06
2019-01-28T04:20:10.926Z,53.95
2019-01-28T04:22:12.512Z,53.75
2019-01-28T04:24:14.110Z,53.56
2019-01-28T04:26:15.734Z,53.33
2019-01-28T04:28:17.343Z,53.13
2019-01-28T04:30:18.981Z,52.93
2019-01-28T04:32:20.583Z,52.78
2019-01-28T04:34:22.228Z,52.59
2019-01-28T04:36:23.841Z,52.46
2019-01-28T04:38:25.442Z,52.37
2019-01-28T04:40:27.042Z,52.34
2019-01-28T04:42:28.681Z,52.32
2019-01-28T04:44:30.278Z,52.30
2019-01-28T04:46:31.881Z,52.30
2019-01-28T04:48:33.518Z,52.39
2019-01-28T04:50:35.113Z,52.47
2019-01-28T04:52:36.710Z,52.61
2019-01-28T04:54:38.336Z,52.67
2019-01-28T04:56:39.930Z,52.79
2019-01-28T04:58:41.525Z,52.94
2019-01-28T05:00:43.157Z,53.08
2019-01-28T05:02:44.753Z,53.15
2019-01-28T05:04:46.365Z,53.21
2019-01-28T05:06:48.023Z,53.22
2019-01-28T05:08:49.646Z,53.21
2019-01-28T05:10:51.252Z,53.20
2019-01-28T05:12:52.854Z,53.22
2019-01-28T05:14:54.466Z,53.18
2019-01-28T05:16:56.083Z,53.20
2019-01-28T05:18:57.722Z,53.09
2019-01-28T05:20:59.317Z,53.09
2019-01-28T05:23:01.084Z,53.07
2019-01-28T05:25:02.713Z,52.98
2019-01-28T05:27:04.323Z,52.95
2019-01-28T05:29:05.919Z,52.98
2019-01-28T05:31:07.513Z,52.91
2019-01-28T05:33:09.109Z,52.85
2019-01-28T05:35:10.706Z,52.73
2019-01-28T05:37:12.346Z,52.65
2019-01-28T05:39:13.938Z,52.52
2019-01-28T05:41:15.530Z,52.34
2019-01-28T05:43:17.125Z,52.17
2019-01-28T05:45:18.737Z,51.96
2019-01-28T05:47:20.359Z,51.78
2019-01-28T05:49:21.957Z,51.58
2019-01-28T05:51:23.591Z,51.39
2019-01-28T05:53:25.186Z,51.27
2019-01-28T05:55:26.767Z,51.11
2019-01-28T05:57:28.390Z,50.92
2019-01-28T05:59:30.001Z,50.85
2019-01-28T06:01:31.611Z,50.79
2019-01-28T06:03:33.205Z,50.75
2019-01-28T06:05:34.816Z,50.71
2019-01-28T06:07:36.416Z,50.63
2019-01-28T06:09:38.053Z,50.62
2019-01-28T06:11:39.663Z,50.69
2019-01-28T06:13:41.265Z,50.74
2019-01-28T06:15:42.852Z,50.83
2019-01-28T06:17:44.455Z,50.87
2019-01-28T06:19:46.062Z,50.90
2019-01-28T06:21:47.713Z,50.98
2019-01-28T06:23:49.319Z,51.01
2019-01-28T06:25:50.924Z,51.06
2019-01-28T06:27:52.517Z,51.14
2019-01-28T06:29:54.100Z,51.22
2019-01-28T06:31:55.708Z,51.25
2019-01-28T06:33:57.348Z,51.30
2019-01-28T06:35:58.945Z,51.31
2019-01-28T06:38:00.552Z,51.33
2019-01-28T06:40:02.192Z,51.38
2019-01-28T06:42:03.804Z,51.41
2019-01-28T06:44:05.408Z,51.44
2019-01-28T06:46:07.015Z,51.45
2019-01-28T06:48:08.665Z,51.47
2019-01-28T06:50:10.267Z,51.51
2019-01-28T06:52:11.880Z,51.47
2019-01-28T06:54:13.522Z,51.44
2019-01-28T06:56:15.131Z,51.42
2019-01-28T06:58:16.739Z,51.41
2019-01-28T07:00:18.389Z,51.38
2019-01-28T07:02:20.008Z,51.34
2019-01-28T07:04:21.601Z,51.29
2019-01-28T07:06:23.240Z,51.18
2019-01-28T07:08:24.840Z,51.10
2019-01-28T07:10:26.519Z,50.95
2019-01-28T07:12:28.166Z,50.79
2019-01-28T07:14:29.762Z,50.64
2019-01-28T07:16:31.358Z,50.52
2019-01-28T07:18:32.953Z,50.27
2019-01-28T07:20:34.594Z,50.14
2019-01-28T07:22:36.189Z,49.96
2019-01-28T07:24:37.785Z,49.90
2019-01-28T07:26:39.406Z,49.83
2019-01-28T07:28:41.015Z,49.72
2019-01-28T07:30:42.623Z,49.68
2019-01-28T07:32:44.263Z,49.71
2019-01-28T07:34:45.859Z,49.64
2019-01-28T07:36:47.461Z,49.62
2019-01-28T07:38:49.078Z,49.65
2019-01-28T07:40:50.694Z,49.67
2019-01-28T07:42:52.304Z,49.74
2019-01-28T07:44:53.957Z,49.81
2019-01-28T07:46:55.586Z,49.88
2019-01-28T07:48:57.231Z,49.94
2019-01-28T07:50:58.820Z,49.97
2019-01-28T07:53:00.418Z,50.06
2019-01-28T07:55:02.076Z,50.09
2019-01-28T07:57:04.296Z,50.15
2019-01-28T07:59:05.959Z,50.22
2019-01-28T08:01:07.558Z,50.26
2019-01-28T08:03:09.167Z,50.33
2019-01-28T08:05:10.752Z,50.37
2019-01-28T08:07:12.375Z,50.38
2019-01-28T08:09:13.979Z,50.43
2019-01-28T08:11:15.590Z,50.50
2019-01-28T08:13:17.185Z,50.53
2019-01-28T08:15:18.782Z,50.55
2019-01-28T08:17:20.393Z,50.55
2019-01-28T08:19:22.032Z,50.59
2019-01-28T08:21:23.627Z,50.61
2019-01-28T08:23:25.240Z,50.64
2019-01-28T08:25:26.851Z,50.65
2019-01-28T08:27:28.450Z,50.60
2019-01-28T08:29:30.083Z,50.58
2019-01-28T08:31:31.685Z,50.55
2019-01-28T08:33:33.335Z,50.47
2019-01-28T08:35:34.937Z,50.44
2019-01-28T08:37:36.540Z,50.30
2019-01-28T08:39:38.165Z,50.25
2019-01-28T08:41:39.786Z,50.12
2019-01-28T08:43:41.385Z,50.04
2019-01-28T08:45:42.978Z,49.89
2019-01-28T08:47:44.607Z,49.76
2019-01-28T08:49:46.216Z,49.61
2019-01-28T08:51:47.818Z,49.46
2019-01-28T08:53:49.413Z,49.40
2019-01-28T08:55:51.024Z,49.33
2019-01-28T08:57:52.645Z,49.27
2019-01-28T08:59:54.242Z,49.23
2019-01-28T09:01:55.887Z,49.22
2019-01-28T09:03:57.482Z,49.23
2019-01-28T09:05:59.077Z,49.30
2019-01-28T09:08:00.713Z,49.29
2019-01-28T09:10:02.305Z,49.37
2019-01-28T09:12:03.945Z,49.45
2019-01-28T09:14:05.537Z,49.50
2019-01-28T09:16:07.134Z,49.56
2019-01-28T09:18:08.752Z,49.60
2019-01-28T09:20:11.290Z,49.62
2019-01-28T09:22:12.038Z,49.69
2019-01-28T09:24:13.647Z,49.74
2019-01-28T09:26:15.251Z,49.77
2019-01-28T09:28:16.895Z,49.79
2019-01-28T09:30:18.479Z,49.91
2019-01-28T09:32:20.083Z,49.95
2019-01-28T09:34:21.717Z,50.02
2019-01-28T09:36:23.328Z,50.05
2019-01-28T09:38:24.929Z,50.08
2019-01-28T09:40:26.584Z,50.11
2019-01-28T09:42:28.188Z,50.12
2019-01-28T09:44:29.781Z,50.14
2019-01-28T09:46:31.377Z,50.19
2019-01-28T09:48:34.296Z,50.25
2019-01-28T09:50:34.645Z,50.29
2019-01-28T09:52:36.291Z,50.37
2019-01-28T09:54:38.672Z,50.46
2019-01-28T09:56:40.275Z,50.55
2019-01-28T09:58:41.869Z,50.63
2019-01-28T10:00:43.451Z,50.70
2019-01-28T10:02:45.032Z,50.69
2019-01-28T10:04:46.672Z,50.59
2019-01-28T10:06:48.256Z,50.40
2019-01-28T10:08:49.857Z,50.14
2019-01-28T10:10:51.453Z,49.90
2019-01-28T10:12:53.059Z,49.71
2019-01-28T10:14:54.669Z,49.42
2019-01-28T10:16:56.293Z,49.29
2019-01-28T10:18:57.894Z,49.12
2019-01-28T10:20:59.543Z,48.93
2019-01-28T10:23:01.151Z,48.80
2019-01-28T10:25:02.758Z,48.69
2019-01-28T10:27:04.390Z,48.63
2019-01-28T10:29:05.971Z,48.57
2019-01-28T10:31:07.584Z,48.52
2019-01-28T10:33:09.181Z,48.53
2019-01-28T10:35:10.832Z,48.51
2019-01-28T10:37:12.429Z,48.53
2019-01-28T10:39:14.029Z,48.52
2019-01-28T10:41:15.634Z,48.53
2019-01-28T10:43:17.220Z,48.57
2019-01-28T10:45:18.804Z,48.67
2019-01-28T10:47:20.450Z,48.72
2019-01-28T10:49:22.060Z,48.77
2019-01-28T10:51:23.658Z,48.78
2019-01-28T10:53:25.271Z,48.81
2019-01-28T10:55:26.856Z,48.84
2019-01-28T10:57:28.467Z,48.91
2019-01-28T10:59:30.100Z,48.94
2019-01-28T11:01:31.709Z,48.99
2019-01-28T11:03:33.305Z,49.11
2019-01-28T11:05:34.938Z,49.27
2019-01-28T11:07:36.544Z,49.31
2019-01-28T11:09:38.182Z,49.41
2019-01-28T11:11:39.897Z,49.46
2019-01-28T11:13:42.122Z,49.53
2019-01-28T11:15:43.727Z,49.55
2019-01-28T11:17:45.366Z,49.59
2019-01-28T11:19:47.026Z,49.65
2019-01-28T11:21:48.648Z,49.70
2019-01-28T11:23:50.259Z,49.71
2019-01-28T11:25:51.871Z,49.74
2019-01-28T11:27:53.514Z,49.71
2019-01-28T11:29:55.236Z,49.75
2019-01-28T11:31:56.899Z,49.75
2019-01-28T11:33:58.473Z,49.77
2019-01-28T11:36:05.172Z,49.75
2019-01-28T11:38:01.891Z,49.79
2019-01-28T11:40:03.542Z,49.71
2019-01-28T11:42:05.078Z,49.70
2019-01-28T11:44:06.824Z,49.63
2019-01-28T11:46:08.413Z,49.59
2019-01-28T11:48:10.035Z,49.52
2019-01-28T11:50:11.653Z,49.31
2019-01-28T11:52:13.264Z,49.24
2019-01-28T11:54:14.877Z,49.10
2019-01-28T11:56:16.536Z,49.02
2019-01-28T11:58:18.130Z,48.85
2019-01-28T12:00:19.740Z,48.71
2019-01-28T12:02:21.341Z,48.62
2019-01-28T12:04:22.952Z,48.60
2019-01-28T12:06:24.564Z,48.52
2019-01-28T12:08:26.204Z,48.57
2019-01-28T12:10:27.816Z,48.52
2019-01-28T12:12:29.418Z,48.54
2019-01-28T12:14:31.014Z,48.53
2019-01-28T12:16:32.665Z,48.55
2019-01-28T12:18:34.292Z,48.60
2019-01-28T12:20:35.922Z,48.62
2019-01-28T12:22:37.521Z,48.66
2019-01-28T12:24:39.117Z,48.78
2019-01-28T12:26:40.722Z,48.81
2019-01-28T12:28:42.362Z,48.83
2019-01-28T12:30:44.012Z,48.96
2019-01-28T12:32:45.620Z,49.03
2019-01-28T12:34:47.228Z,49.12
2019-01-28T12:36:48.825Z,49.21
2019-01-28T12:38:50.461Z,49.33
2019-01-28T12:40:52.069Z,49.34
2019-01-28T12:42:53.711Z,49.42
2019-01-28T12:44:55.316Z,49.44
2019-01-28T12:46:56.910Z,49.48
2019-01-28T12:48:58.516Z,49.51
2019-01-28T12:51:00.153Z,49.56
2019-01-28T12:53:01.753Z,49.58
2019-01-28T12:55:03.356Z,49.65
2019-01-28T12:57:04.950Z,49.62
2019-01-28T12:59:09.094Z,49.60
2019-01-28T13:01:08.207Z,49.58
2019-01-28T13:03:09.846Z,49.55
2019-01-28T13:05:11.460Z,49.56
2019-01-28T13:07:13.053Z,49.52
2019-01-28T13:09:14.664Z,49.49
2019-01-28T13:11:16.331Z,49.38
2019-01-28T13:13:18.020Z,49.33
2019-01-28T13:15:19.696Z,49.24
2019-01-28T13:17:21.308Z,49.10
2019-01-28T13:19:29.851Z,48.97
2019-01-28T13:21:24.608Z,48.80
2019-01-28T13:23:26.224Z,48.65
2019-01-28T13:25:27.827Z,48.60
2019-01-28T13:27:29.470Z,48.52
2019-01-28T13:29:31.070Z,48.41
2019-01-28T13:31:32.910Z,48.33
2019-01-28T13:33:34.321Z,48.29
2019-01-28T13:35:35.910Z,48.20
2019-01-28T13:37:37.491Z,48.19
2019-01-28T13:39:39.105Z,48.20
2019-01-28T13:41:40.726Z,48.21
2019-01-28T13:43:42.329Z,48.24
2019-01-28T13:45:43.970Z,48.25
2019-01-28T13:47:45.570Z,48.27
2019-01-28T13:49:47.163Z,48.25
2019-01-28T13:51:48.805Z,48.25
2019-01-28T13:53:50.445Z,48.30
2019-01-28T13:55:52.052Z,48.36
2019-01-28T13:57:53.704Z,48.42
2019-01-28T13:59:55.305Z,48.46
2019-01-28T14:01:56.905Z,48.51
2019-01-28T14:03:58.674Z,48.54
2019-01-28T14:06:00.288Z,48.65
2019-01-28T14:08:01.894Z,48.67
2019-01-28T14:10:03.489Z,48.76
2019-01-28T14:12:05.091Z,48.66
2019-01-28T14:14:06.690Z,48.76
2019-01-28T14:16:08.328Z,48.86
2019-01-28T14:18:09.940Z,49.11
2019-01-28T14:20:11.538Z,49.44
2019-01-28T14:22:13.133Z,49.50
2019-01-28T14:24:14.800Z,49.68
2019-01-28T14:26:16.412Z,49.92
2019-01-28T14:28:18.018Z,50.02
2019-01-28T14:30:19.609Z,50.36
2019-01-28T14:32:21.220Z,50.28
2019-01-28T14:34:22.819Z,50.24
2019-01-28T14:36:24.453Z,50.53
2019-01-28T14:38:26.114Z,50.51
2019-01-28T14:40:27.792Z,50.58
2019-01-28T14:42:29.492Z,50.78
2019-01-28T14:44:31.133Z,50.84
2019-01-28T14:46:32.744Z,50.98
2019-01-28T14:48:34.342Z,50.80
2019-01-28T14:50:35.960Z,51.09
2019-01-28T14:52:37.565Z,50.79
2019-01-28T14:54:39.176Z,51.15
2019-01-28T14:56:40.837Z,50.71
2019-01-28T14:58:42.433Z,50.94
2019-01-28T15:00:44.031Z,51.01
2019-01-28T15:02:45.642Z,51.39
2019-01-28T15:04:47.241Z,51.35
2019-01-28T15:06:48.843Z,51.53
2019-01-28T15:08:50.482Z,51.46
2019-01-28T15:10:52.089Z,52.06
2019-01-28T15:12:53.718Z,51.87
2019-01-28T15:14:55.332Z,50.76
2019-01-28T15:16:56.930Z,50.32
2019-01-28T15:18:58.576Z,50.11
2019-01-28T15:21:00.248Z,50.12
2019-01-28T15:23:01.842Z,49.66
2019-01-28T15:25:03.438Z,49.81
2019-01-28T15:27:05.085Z,49.67
2019-01-28T15:29:06.682Z,49.64
2019-01-28T15:31:08.290Z,49.61
2019-01-28T15:33:09.934Z,48.77
2019-01-28T15:35:11.586Z,48.32
2019-01-28T15:37:13.195Z,48.75
2019-01-28T15:39:14.804Z,48.84
2019-01-28T15:41:16.411Z,48.46
2019-01-28T15:43:18.019Z,48.73
2019-01-28T15:45:19.645Z,48.50
2019-01-28T15:47:21.243Z,48.71
2019-01-28T15:49:22.888Z,48.13
2019-01-28T15:51:24.475Z,48.21
2019-01-28T15:53:26.102Z,48.68
2019-01-28T15:55:27.716Z,48.98
2019-01-28T15:57:29.325Z,48.41
2019-01-28T15:59:30.975Z,48.47
2019-01-28T16:01:32.577Z,48.56
2019-01-28T16:03:34.454Z,48.10
2019-01-28T16:05:36.146Z,48.16
2019-01-28T16:07:37.777Z,48.01
2019-01-28T16:09:39.373Z,47.77
2019-01-28T16:11:40.996Z,46.96
2019-01-28T16:13:42.598Z,47.43
2019-01-28T16:15:44.238Z,47.58
2019-01-28T16:17:45.848Z,48.80
2019-01-28T16:19:47.444Z,48.58
2019-01-28T16:21:49.081Z,48.81
2019-01-28T16:23:50.699Z,48.89
2019-01-28T16:25:52.288Z,49.16
2019-01-28T16:27:53.882Z,48.59
2019-01-28T16:29:55.477Z,48.36
2019-01-28T16:31:57.128Z,48.26
2019-01-28T16:33:58.743Z,49.02
2019-01-28T16:36:00.349Z,49.31
2019-01-28T16:38:01.974Z,49.05
2019-01-28T16:40:03.559Z,49.17
2019-01-28T16:42:05.171Z,49.56
2019-01-28T16:44:06.765Z,49.36
2019-01-28T16:46:08.404Z,49.18
2019-01-28T16:48:10.006Z,49.23
2019-01-28T16:50:11.605Z,49.66
2019-01-28T16:52:13.245Z,50.12
2019-01-28T16:54:14.867Z,49.19
2019-01-28T16:56:16.540Z,49.53
2019-01-28T16:58:18.143Z,48.73
2019-01-28T17:00:19.741Z,49.28
2019-01-28T17:02:21.372Z,49.71
2019-01-28T17:04:23.004Z,50.06
2019-01-28T17:06:24.602Z,48.72
2019-01-28T17:08:26.203Z,49.09
2019-01-28T17:10:27.800Z,49.37
2019-01-28T17:12:29.483Z,49.95
2019-01-28T17:14:31.070Z,50.44
2019-01-28T17:16:32.707Z,47.33
2019-01-28T17:18:34.314Z,49.24
2019-01-28T17:20:36.019Z,49.25
2019-01-28T17:22:37.642Z,49.45
2019-01-28T17:24:39.340Z,49.50
2019-01-28T17:26:40.978Z,49.52
2019-01-28T17:28:42.574Z,49.60
2019-01-28T17:30:44.179Z,49.58
2019-01-28T17:32:45.783Z,49.58
2019-01-28T17:34:47.382Z,49.49
2019-01-28T17:36:49.015Z,49.39
2019-01-28T17:38:50.643Z,49.07
2019-01-28T17:40:52.256Z,48.91
2019-01-28T17:42:53.863Z,48.76
2019-01-28T17:44:55.503Z,48.72
2019-01-28T17:46:57.126Z,48.62
2019-01-28T17:48:58.767Z,48.51
2019-01-28T17:51:00.410Z,48.41
2019-01-28T17:53:02.020Z,48.35
2019-01-28T17:55:03.618Z,48.29
2019-01-28T17:57:05.235Z,48.23
2019-01-28T17:59:06.840Z,48.18
2019-01-28T18:01:08.465Z,48.16
2019-01-28T18:03:10.076Z,48.20
2019-01-28T18:05:11.674Z,48.10
2019-01-28T18:07:13.287Z,48.06
2019-01-28T18:09:14.896Z,48.04
2019-01-28T18:11:16.537Z,48.02
2019-01-28T18:13:18.139Z,48.09
2019-01-28T18:15:19.755Z,48.05
2019-01-28T18:17:21.348Z,48.27
2019-01-28T18:19:22.955Z,48.39
2019-01-28T18:21:24.628Z,48.46
2019-01-28T18:23:26.231Z,48.21
2019-01-28T18:25:27.848Z,48.03
2019-01-28T18:27:29.504Z,47.47
2019-01-28T18:29:31.116Z,47.80
2019-01-28T18:31:34.694Z,46.96
2019-01-28T18:33:36.364Z,46.80
2019-01-28T18:35:38.017Z,46.85
2019-01-28T18:37:39.645Z,46.89
2019-01-28T18:39:41.365Z,47.46
2019-01-28T18:41:42.969Z,46.60
2019-01-28T18:43:44.570Z,47.46
2019-01-28T18:45:46.194Z,47.95
2019-01-28T18:47:47.798Z,47.81
2019-01-28T18:49:49.393Z,48.30
2019-01-28T18:51:51.029Z,48.76
2019-01-28T18:53:52.640Z,47.83
2019-01-28T18:55:55.702Z,47.98
2019-01-28T18:57:55.903Z,47.74
2019-01-28T18:59:57.524Z,48.20
2019-01-28T19:01:59.126Z,48.00
2019-01-28T19:04:00.744Z,48.10
2019-01-28T19:06:02.337Z,48.22
2019-01-28T19:08:03.948Z,48.45
2019-01-28T19:10:05.560Z,48.28
2019-01-28T19:12:07.153Z,48.52
2019-01-28T19:14:24.145Z,48.39
2019-01-28T19:16:28.316Z,48.75
2019-01-28T19:18:33.566Z,48.50
2019-01-28T19:20:35.166Z,48.50
2019-01-28T19:22:36.846Z,47.76
2019-01-28T19:24:38.459Z,48.92
2019-01-28T19:26:40.072Z,48.43
2019-01-28T19:28:41.679Z,48.46
2019-01-28T19:30:43.278Z,48.76
2019-01-28T19:32:45.475Z,48.34
2019-01-28T19:34:47.063Z,48.15
2019-01-28T19:36:48.656Z,48.56
2019-01-28T19:38:50.249Z,48.72
2019-01-28T19:40:51.835Z,49.38
2019-01-28T19:42:53.443Z,47.17
2019-01-28T19:44:55.060Z,47.31
2019-01-28T19:46:56.663Z,47.79
2019-01-28T19:48:58.361Z,48.28
2019-01-28T19:50:59.951Z,48.09
2019-01-28T19:53:01.549Z,47.01
2019-01-28T19:55:03.215Z,47.44
2019-01-28T19:57:04.966Z,48.05
2019-01-28T19:59:06.709Z,47.41
2019-01-28T20:01:08.379Z,47.92
2019-01-28T20:03:10.022Z,47.42
2019-01-28T20:05:11.622Z,47.54
2019-01-28T20:07:13.239Z,47.16
2019-01-28T20:09:14.852Z,47.16
2019-01-28T20:11:16.492Z,47.79
2019-01-28T20:13:18.128Z,47.95
2019-01-28T20:15:19.725Z,48.72
2019-01-28T20:17:21.331Z,48.18
2019-01-28T20:19:22.916Z,47.98
2019-01-28T20:21:24.540Z,47.82
2019-01-28T20:23:26.977Z,48.14
2019-01-28T20:25:27.831Z,47.10
2019-01-28T20:27:29.476Z,47.31
2019-01-28T20:29:31.153Z,47.82
2019-01-28T20:31:32.755Z,48.25
2019-01-28T20:33:34.357Z,48.41
2019-01-28T20:35:35.994Z,48.74
2019-01-28T20:37:37.607Z,49.00
2019-01-28T20:39:39.192Z,49.32
2019-01-28T20:41:40.832Z,49.37
2019-01-28T20:43:42.455Z,49.61
2019-01-28T20:45:45.187Z,50.12
2019-01-28T20:47:45.782Z,49.26
2019-01-28T20:49:47.391Z,49.21
2019-01-28T20:51:49.026Z,48.98
2019-01-28T20:53:50.676Z,49.17
2019-01-28T20:55:52.288Z,49.69
2019-01-28T20:57:53.912Z,49.99
2019-01-28T20:59:55.547Z,50.30
2019-01-28T21:01:57.157Z,50.42
2019-01-28T21:03:58.801Z,50.09
2019-01-28T21:06:00.387Z,50.06
2019-01-28T21:08:02.023Z,47.57
2019-01-28T21:10:03.703Z,49.11
2019-01-28T21:12:05.323Z,49.26
2019-01-28T21:14:06.951Z,49.50
2019-01-28T21:16:08.569Z,49.32
2019-01-28T21:18:10.168Z,49.69
2019-01-28T21:20:12.452Z,49.76
2019-01-28T21:22:14.087Z,50.28
2019-01-28T21:24:15.685Z,50.98
2019-01-28T21:26:17.282Z,51.11
2019-01-28T21:28:18.932Z,51.55
2019-01-28T21:30:20.530Z,51.75
2019-01-28T21:32:22.149Z,51.68
2019-01-28T21:34:23.785Z,51.66
2019-01-28T21:36:25.377Z,51.88
2019-01-28T21:38:30.632Z,52.10
2019-01-28T21:40:32.373Z,52.31
2019-01-28T21:42:33.998Z,52.16
2019-01-28T21:44:35.597Z,52.20
2019-01-28T21:46:37.185Z,52.12
2019-01-28T21:48:38.772Z,52.18
2019-01-28T21:50:40.375Z,52.12
2019-01-28T21:52:41.978Z,52.20
2019-01-28T21:54:43.607Z,52.25
2019-01-28T21:56:45.196Z,52.30
2019-01-28T21:58:46.800Z,52.36
2019-01-28T22:00:48.479Z,52.36
2019-01-28T22:02:50.098Z,52.59
2019-01-28T22:04:51.716Z,52.59
2019-01-28T22:06:53.318Z,52.70
2019-01-28T22:08:54.923Z,52.61
2019-01-28T22:10:56.537Z,52.90
2019-01-28T22:12:58.179Z,53.21
2019-01-28T22:14:59.773Z,53.01
2019-01-28T22:17:01.384Z,53.27
2019-01-28T22:19:02.987Z,53.43
2019-01-28T22:21:04.585Z,53.39
2019-01-28T22:23:06.195Z,53.45
2019-01-28T22:25:07.808Z,53.38
2019-01-28T22:27:09.414Z,53.75
2019-01-28T22:29:11.037Z,53.86
2019-01-28T22:31:12.648Z,53.71
2019-01-28T22:33:14.236Z,53.43
2019-01-28T22:35:15.839Z,52.95
2019-01-28T22:37:17.487Z,52.86
2019-01-28T22:39:19.095Z,52.74
2019-01-28T22:41:20.698Z,53.05
2019-01-28T22:43:22.321Z,53.13
2019-01-28T22:45:23.958Z,53.28
2019-01-28T22:47:25.562Z,53.43
2019-01-28T22:49:27.167Z,53.29
2019-01-28T22:51:28.769Z,53.31
2019-01-28T22:53:30.366Z,53.28
2019-01-28T22:55:31.971Z,53.08
2019-01-28T22:57:33.615Z,53.09
2019-01-28T22:59:35.210Z,53.26
2019-01-28T23:01:36.810Z,53.14
2019-01-28T23:03:38.465Z,53.09
2019-01-28T23:05:40.075Z,53.51
2019-01-28T23:07:41.731Z,53.27
2019-01-28T23:09:43.375Z,53.40
2019-01-28T23:11:44.984Z,53.28
2019-01-28T23:13:46.596Z,53.26
2019-01-28T23:15:48.249Z,53.17
2019-01-28T23:17:49.848Z,53.46
2019-01-28T23:19:51.460Z,53.54
2019-01-28T23:21:53.057Z,53.57
2019-01-28T23:23:54.640Z,53.71
2019-01-28T23:25:56.238Z,53.67
2019-01-28T23:27:57.877Z,53.74
2019-01-28T23:29:59.473Z,53.82
2019-01-28T23:32:01.070Z,53.92
2019-01-28T23:34:02.666Z,53.94
2019-01-28T23:36:04.249Z,54.09
2019-01-28T23:38:05.851Z,54.64
2019-01-28T23:40:07.477Z,54.45
2019-01-28T23:42:09.081Z,54.85
2019-01-28T23:44:10.664Z,54.98
2019-01-28T23:46:12.305Z,55.03
2019-01-28T23:48:13.892Z,55.29
2019-01-28T23:50:15.476Z,55.40
2019-01-28T23:52:24.532Z,55.83
2019-01-28T23:54:18.717Z,55.65
2019-01-28T23:56:20.357Z,55.87
2019-01-28T23:58:21.957Z,56.33
